sensor_id;sensor_type;location;lat;lon;timestamp;temperature;humidity
5134;DHT22;2585;48.696;10.066;2023-02-15T00:01:42;-1.30;94.20
5134;DHT22;2585;48.696;10.066;2023-02-15T00:04:12;-1.30;94.20
5134;DHT22;2585;48.696;10.066;2023-02-15T00:06:39;-1.30;94.20
5134;DHT22;2585;48.696;10.066;2023-02-15T00:09:06;-1.30;94.20
5134;DHT22;2585;48.696;10.066;2023-02-15T00:11:33;-1.30;94.20
5134;DHT22;2585;48.696;10.066;2023-02-15T00:16:43;-1.30;94.20
5134;DHT22;2585;48.696;10.066;2023-02-15T00:19:11;-1.40;94.20
5134;DHT22;2585;48.696;10.066;2023-02-15T00:21:41;-1.50;94.20
5134;DHT22;2585;48.696;10.066;2023-02-15T00:24:09;-1.60;94.10
5134;DHT22;2585;48.696;10.066;2023-02-15T00:26:38;-1.60;94.10
5134;DHT22;2585;48.696;10.066;2023-02-15T00:29:06;-1.50;94.20
5134;DHT22;2585;48.696;10.066;2023-02-15T00:31:33;-1.50;94.20
5134;DHT22;2585;48.696;10.066;2023-02-15T00:34:05;-1.50;94.20
5134;DHT22;2585;48.696;10.066;2023-02-15T00:36:32;-1.40;94.20
5134;DHT22;2585;48.696;10.066;2023-02-15T00:38:59;-1.40;94.20
5134;DHT22;2585;48.696;10.066;2023-02-15T00:41:26;-1.50;94.20
5134;DHT22;2585;48.696;10.066;2023-02-15T00:43:52;-1.50;94.20
5134;DHT22;2585;48.696;10.066;2023-02-15T00:46:19;-1.50;94.20
5134;DHT22;2585;48.696;10.066;2023-02-15T00:48:46;-1.50;94.20
5134;DHT22;2585;48.696;10.066;2023-02-15T00:51:13;-1.60;94.10
5134;DHT22;2585;48.696;10.066;2023-02-15T00:53:40;-1.60;94.10
5134;DHT22;2585;48.696;10.066;2023-02-15T00:56:07;-1.70;94.10
5134;DHT22;2585;48.696;10.066;2023-02-15T00:58:33;-1.70;94.10
5134;DHT22;2585;48.696;10.066;2023-02-15T01:01:09;-1.80;94.10
5134;DHT22;2585;48.696;10.066;2023-02-15T01:03:37;-1.70;94.10
5134;DHT22;2585;48.696;10.066;2023-02-15T01:06:04;-1.60;94.10
5134;DHT22;2585;48.696;10.066;2023-02-15T01:08:31;-1.60;94.10
5134;DHT22;2585;48.696;10.066;2023-02-15T01:11:04;-1.60;94.10
5134;DHT22;2585;48.696;10.066;2023-02-15T01:13:31;-1.70;94.10
5134;DHT22;2585;48.696;10.066;2023-02-15T01:15:58;-1.70;94.10
5134;DHT22;2585;48.696;10.066;2023-02-15T01:18:26;-1.60;94.10
5134;DHT22;2585;48.696;10.066;2023-02-15T01:20:53;-1.50;94.20
5134;DHT22;2585;48.696;10.066;2023-02-15T01:23:20;-1.60;94.10
5134;DHT22;2585;48.696;10.066;2023-02-15T01:25:47;-1.60;94.10
5134;DHT22;2585;48.696;10.066;2023-02-15T01:28:13;-1.60;94.10
5134;DHT22;2585;48.696;10.066;2023-02-15T01:30:40;-1.50;94.20
5134;DHT22;2585;48.696;10.066;2023-02-15T01:33:07;-1.60;94.10
5134;DHT22;2585;48.696;10.066;2023-02-15T01:35:38;-1.60;94.10
5134;DHT22;2585;48.696;10.066;2023-02-15T01:38:04;-1.60;94.10
5134;DHT22;2585;48.696;10.066;2023-02-15T01:40:31;-1.50;94.20
5134;DHT22;2585;48.696;10.066;2023-02-15T01:42:58;-1.50;94.20
5134;DHT22;2585;48.696;10.066;2023-02-15T01:45:30;-1.60;94.10
5134;DHT22;2585;48.696;10.066;2023-02-15T01:48:25;-1.50;94.20
5134;DHT22;2585;48.696;10.066;2023-02-15T01:50:56;-1.50;94.20
5134;DHT22;2585;48.696;10.066;2023-02-15T01:53:43;-1.60;94.10
5134;DHT22;2585;48.696;10.066;2023-02-15T01:56:19;-1.70;94.10
5134;DHT22;2585;48.696;10.066;2023-02-15T01:58:46;-1.60;94.10
5134;DHT22;2585;48.696;10.066;2023-02-15T02:01:14;-1.60;94.10
5134;DHT22;2585;48.696;10.066;2023-02-15T02:04:02;-1.60;94.10
5134;DHT22;2585;48.696;10.066;2023-02-15T02:06:33;-1.80;94.10
5134;DHT22;2585;48.696;10.066;2023-02-15T02:09:00;-1.80;94.10
5134;DHT22;2585;48.696;10.066;2023-02-15T02:11:27;-1.80;94.10
5134;DHT22;2585;48.696;10.066;2023-02-15T02:13:55;-1.90;94.10
5134;DHT22;2585;48.696;10.066;2023-02-15T02:16:27;-1.90;94.10
5134;DHT22;2585;48.696;10.066;2023-02-15T02:19:19;-1.90;94.10
5134;DHT22;2585;48.696;10.066;2023-02-15T02:22:18;-1.90;94.10
5134;DHT22;2585;48.696;10.066;2023-02-15T02:25:02;-1.90;94.10
5134;DHT22;2585;48.696;10.066;2023-02-15T02:35:43;-2.00;94.00
5134;DHT22;2585;48.696;10.066;2023-02-15T02:38:28;-2.00;94.00
5134;DHT22;2585;48.696;10.066;2023-02-15T02:41:16;-2.00;94.00
5134;DHT22;2585;48.696;10.066;2023-02-15T02:46:24;-2.10;94.00
5134;DHT22;2585;48.696;10.066;2023-02-15T02:48:52;-2.10;94.00
5134;DHT22;2585;48.696;10.066;2023-02-15T02:51:20;-2.10;94.00
5134;DHT22;2585;48.696;10.066;2023-02-15T02:53:54;-2.10;94.00
5134;DHT22;2585;48.696;10.066;2023-02-15T02:56:39;-2.10;94.00
5134;DHT22;2585;48.696;10.066;2023-02-15T02:59:12;-2.10;94.00
5134;DHT22;2585;48.696;10.066;2023-02-15T03:02:32;-2.00;94.00
5134;DHT22;2585;48.696;10.066;2023-02-15T03:04:56;-2.00;94.00
5134;DHT22;2585;48.696;10.066;2023-02-15T03:07:26;-2.00;94.00
5134;DHT22;2585;48.696;10.066;2023-02-15T03:09:57;-1.90;94.10
5134;DHT22;2585;48.696;10.066;2023-02-15T03:12:30;-1.90;94.10
5134;DHT22;2585;48.696;10.066;2023-02-15T03:15:03;-1.90;94.10
5134;DHT22;2585;48.696;10.066;2023-02-15T03:17:32;-1.90;94.10
5134;DHT22;2585;48.696;10.066;2023-02-15T03:20:08;-1.90;94.10
5134;DHT22;2585;48.696;10.066;2023-02-15T03:22:40;-1.90;94.10
5134;DHT22;2585;48.696;10.066;2023-02-15T03:25:13;-1.90;94.10
5134;DHT22;2585;48.696;10.066;2023-02-15T03:27:44;-1.90;94.10
5134;DHT22;2585;48.696;10.066;2023-02-15T03:30:13;-1.80;94.10
5134;DHT22;2585;48.696;10.066;2023-02-15T03:32:43;-1.90;94.10
5134;DHT22;2585;48.696;10.066;2023-02-15T03:35:11;-2.00;94.00
5134;DHT22;2585;48.696;10.066;2023-02-15T03:37:46;-2.00;94.00
5134;DHT22;2585;48.696;10.066;2023-02-15T03:40:21;-2.10;94.00
5134;DHT22;2585;48.696;10.066;2023-02-15T03:51:46;-2.00;94.00
5134;DHT22;2585;48.696;10.066;2023-02-15T03:54:21;-2.00;94.00
5134;DHT22;2585;48.696;10.066;2023-02-15T03:57:11;-2.00;94.00
5134;DHT22;2585;48.696;10.066;2023-02-15T03:59:58;-2.10;94.00
5134;DHT22;2585;48.696;10.066;2023-02-15T04:02:56;-2.10;94.00
5134;DHT22;2585;48.696;10.066;2023-02-15T04:05:25;-2.10;94.00
5134;DHT22;2585;48.696;10.066;2023-02-15T04:07:52;-2.10;94.00
5134;DHT22;2585;48.696;10.066;2023-02-15T04:10:19;-2.10;94.00
5134;DHT22;2585;48.696;10.066;2023-02-15T04:13:04;-2.10;94.00
5134;DHT22;2585;48.696;10.066;2023-02-15T04:15:31;-2.00;94.00
5134;DHT22;2585;48.696;10.066;2023-02-15T04:18:24;-2.10;94.00
5134;DHT22;2585;48.696;10.066;2023-02-15T04:21:09;-2.10;94.00
5134;DHT22;2585;48.696;10.066;2023-02-15T04:23:55;-2.10;94.00
5134;DHT22;2585;48.696;10.066;2023-02-15T04:26:40;-2.10;94.00
5134;DHT22;2585;48.696;10.066;2023-02-15T04:29:07;-2.20;94.00
5134;DHT22;2585;48.696;10.066;2023-02-15T04:31:34;-2.20;94.00
5134;DHT22;2585;48.696;10.066;2023-02-15T04:34:01;-2.30;94.00
5134;DHT22;2585;48.696;10.066;2023-02-15T04:36:28;-2.30;94.00
5134;DHT22;2585;48.696;10.066;2023-02-15T04:38:54;-2.30;94.00
5134;DHT22;2585;48.696;10.066;2023-02-15T04:41:21;-2.30;94.00
5134;DHT22;2585;48.696;10.066;2023-02-15T04:43:48;-2.40;93.90
5134;DHT22;2585;48.696;10.066;2023-02-15T04:46:14;-2.30;94.00
5134;DHT22;2585;48.696;10.066;2023-02-15T04:48:41;-2.30;94.00
5134;DHT22;2585;48.696;10.066;2023-02-15T04:51:08;-2.40;93.90
5134;DHT22;2585;48.696;10.066;2023-02-15T04:53:35;-2.30;94.00
5134;DHT22;2585;48.696;10.066;2023-02-15T04:56:02;-2.30;94.00
5134;DHT22;2585;48.696;10.066;2023-02-15T04:58:29;-2.20;94.00
5134;DHT22;2585;48.696;10.066;2023-02-15T05:00:57;-2.30;94.00
5134;DHT22;2585;48.696;10.066;2023-02-15T05:03:24;-2.30;94.00
5134;DHT22;2585;48.696;10.066;2023-02-15T05:05:51;-2.30;94.00
5134;DHT22;2585;48.696;10.066;2023-02-15T05:08:17;-2.40;93.90
5134;DHT22;2585;48.696;10.066;2023-02-15T05:10:44;-2.40;93.90
5134;DHT22;2585;48.696;10.066;2023-02-15T05:13:11;-2.40;93.90
5134;DHT22;2585;48.696;10.066;2023-02-15T05:15:38;-2.30;94.00
5134;DHT22;2585;48.696;10.066;2023-02-15T05:18:05;-2.30;94.00
5134;DHT22;2585;48.696;10.066;2023-02-15T05:20:33;-2.30;94.00
5134;DHT22;2585;48.696;10.066;2023-02-15T05:23:00;-2.20;94.00
5134;DHT22;2585;48.696;10.066;2023-02-15T05:25:26;-2.30;94.00
5134;DHT22;2585;48.696;10.066;2023-02-15T05:28:12;-2.20;94.00
5134;DHT22;2585;48.696;10.066;2023-02-15T05:31:03;-2.20;94.00
5134;DHT22;2585;48.696;10.066;2023-02-15T05:33:31;-2.20;94.00
5134;DHT22;2585;48.696;10.066;2023-02-15T05:35:58;-2.30;94.00
5134;DHT22;2585;48.696;10.066;2023-02-15T05:38:27;-2.20;94.00
5134;DHT22;2585;48.696;10.066;2023-02-15T05:40:54;-2.30;94.00
5134;DHT22;2585;48.696;10.066;2023-02-15T05:43:22;-2.20;94.00
5134;DHT22;2585;48.696;10.066;2023-02-15T05:45:53;-2.30;94.00
5134;DHT22;2585;48.696;10.066;2023-02-15T05:48:23;-2.30;94.00
5134;DHT22;2585;48.696;10.066;2023-02-15T05:51:20;-2.20;94.00
5134;DHT22;2585;48.696;10.066;2023-02-15T05:53:47;-2.30;94.00
5134;DHT22;2585;48.696;10.066;2023-02-15T05:56:13;-2.20;94.00
5134;DHT22;2585;48.696;10.066;2023-02-15T05:58:41;-2.20;94.00
5134;DHT22;2585;48.696;10.066;2023-02-15T06:01:13;-2.20;94.00
5134;DHT22;2585;48.696;10.066;2023-02-15T06:03:40;-2.10;94.00
5134;DHT22;2585;48.696;10.066;2023-02-15T06:06:07;-2.10;94.00
5134;DHT22;2585;48.696;10.066;2023-02-15T06:08:35;-2.20;94.00
5134;DHT22;2585;48.696;10.066;2023-02-15T06:11:03;-2.10;94.00
5134;DHT22;2585;48.696;10.066;2023-02-15T06:13:31;-2.20;94.00
5134;DHT22;2585;48.696;10.066;2023-02-15T06:15:58;-2.20;94.00
5134;DHT22;2585;48.696;10.066;2023-02-15T06:18:25;-2.40;93.90
5134;DHT22;2585;48.696;10.066;2023-02-15T06:20:52;-2.40;93.90
5134;DHT22;2585;48.696;10.066;2023-02-15T06:23:19;-2.40;93.90
5134;DHT22;2585;48.696;10.066;2023-02-15T06:25:46;-2.40;93.90
5134;DHT22;2585;48.696;10.066;2023-02-15T06:28:13;-2.40;93.90
5134;DHT22;2585;48.696;10.066;2023-02-15T06:30:40;-2.40;93.90
5134;DHT22;2585;48.696;10.066;2023-02-15T06:33:06;-2.40;93.90
5134;DHT22;2585;48.696;10.066;2023-02-15T06:35:33;-2.40;93.90
5134;DHT22;2585;48.696;10.066;2023-02-15T06:38:00;-2.40;93.90
5134;DHT22;2585;48.696;10.066;2023-02-15T06:40:27;-2.30;94.00
5134;DHT22;2585;48.696;10.066;2023-02-15T06:42:53;-2.30;94.00
5134;DHT22;2585;48.696;10.066;2023-02-15T06:45:20;-2.30;94.00
5134;DHT22;2585;48.696;10.066;2023-02-15T06:47:47;-2.40;93.90
5134;DHT22;2585;48.696;10.066;2023-02-15T06:50:14;-2.30;94.00
5134;DHT22;2585;48.696;10.066;2023-02-15T06:52:41;-2.20;94.00
5134;DHT22;2585;48.696;10.066;2023-02-15T06:55:07;-2.30;94.00
5134;DHT22;2585;48.696;10.066;2023-02-15T06:57:34;-2.30;94.00
5134;DHT22;2585;48.696;10.066;2023-02-15T07:00:01;-2.20;94.00
5134;DHT22;2585;48.696;10.066;2023-02-15T07:02:31;-2.20;94.00
5134;DHT22;2585;48.696;10.066;2023-02-15T07:04:58;-2.20;94.00
5134;DHT22;2585;48.696;10.066;2023-02-15T07:07:25;-2.10;94.00
5134;DHT22;2585;48.696;10.066;2023-02-15T07:09:52;-2.10;94.00
5134;DHT22;2585;48.696;10.066;2023-02-15T07:12:18;-2.10;94.00
5134;DHT22;2585;48.696;10.066;2023-02-15T07:15:04;-2.10;94.00
5134;DHT22;2585;48.696;10.066;2023-02-15T07:17:33;-2.10;94.00
5134;DHT22;2585;48.696;10.066;2023-02-15T07:20:07;-2.10;94.00
5134;DHT22;2585;48.696;10.066;2023-02-15T07:22:35;-2.10;94.00
5134;DHT22;2585;48.696;10.066;2023-02-15T07:25:04;-2.10;94.00
5134;DHT22;2585;48.696;10.066;2023-02-15T07:27:31;-2.00;94.00
5134;DHT22;2585;48.696;10.066;2023-02-15T07:29:59;-2.00;94.00
5134;DHT22;2585;48.696;10.066;2023-02-15T07:32:30;-2.00;94.00
5134;DHT22;2585;48.696;10.066;2023-02-15T07:34:58;-2.00;94.00
5134;DHT22;2585;48.696;10.066;2023-02-15T07:37:26;-2.00;94.00
5134;DHT22;2585;48.696;10.066;2023-02-15T07:39:52;-2.10;94.00
5134;DHT22;2585;48.696;10.066;2023-02-15T07:42:19;-2.10;94.00
5134;DHT22;2585;48.696;10.066;2023-02-15T07:44:47;-2.10;94.00
5134;DHT22;2585;48.696;10.066;2023-02-15T07:47:14;-2.00;94.00
5134;DHT22;2585;48.696;10.066;2023-02-15T07:49:41;-2.00;94.00
5134;DHT22;2585;48.696;10.066;2023-02-15T07:52:08;-2.00;94.00
5134;DHT22;2585;48.696;10.066;2023-02-15T07:54:34;-2.00;94.00
5134;DHT22;2585;48.696;10.066;2023-02-15T07:57:01;-1.90;94.10
5134;DHT22;2585;48.696;10.066;2023-02-15T07:59:28;-1.90;94.10
5134;DHT22;2585;48.696;10.066;2023-02-15T08:01:55;-1.80;94.10
5134;DHT22;2585;48.696;10.066;2023-02-15T08:04:23;-1.70;94.10
5134;DHT22;2585;48.696;10.066;2023-02-15T08:06:53;-1.70;94.10
5134;DHT22;2585;48.696;10.066;2023-02-15T08:09:21;-1.70;94.10
5134;DHT22;2585;48.696;10.066;2023-02-15T08:11:47;-1.60;94.10
5134;DHT22;2585;48.696;10.066;2023-02-15T08:14:19;-1.60;94.10
5134;DHT22;2585;48.696;10.066;2023-02-15T08:16:48;-1.60;94.10
5134;DHT22;2585;48.696;10.066;2023-02-15T08:19:18;-1.60;94.10
5134;DHT22;2585;48.696;10.066;2023-02-15T08:21:48;-1.50;94.10
5134;DHT22;2585;48.696;10.066;2023-02-15T08:24:17;-1.60;94.10
5134;DHT22;2585;48.696;10.066;2023-02-15T08:26:44;-1.60;94.10
5134;DHT22;2585;48.696;10.066;2023-02-15T08:29:18;-1.50;94.10
5134;DHT22;2585;48.696;10.066;2023-02-15T08:31:46;-1.40;94.20
5134;DHT22;2585;48.696;10.066;2023-02-15T08:34:16;-1.40;94.20
5134;DHT22;2585;48.696;10.066;2023-02-15T08:36:43;-1.50;94.10
5134;DHT22;2585;48.696;10.066;2023-02-15T08:39:12;-1.40;94.20
5134;DHT22;2585;48.696;10.066;2023-02-15T08:41:41;-1.30;94.20
5134;DHT22;2585;48.696;10.066;2023-02-15T08:44:08;-1.30;94.20
5134;DHT22;2585;48.696;10.066;2023-02-15T08:46:40;-1.20;94.20
5134;DHT22;2585;48.696;10.066;2023-02-15T08:49:09;-1.30;94.20
5134;DHT22;2585;48.696;10.066;2023-02-15T08:51:37;-1.20;94.20
5134;DHT22;2585;48.696;10.066;2023-02-15T08:54:12;-1.30;94.20
5134;DHT22;2585;48.696;10.066;2023-02-15T08:56:41;-1.30;94.20
5134;DHT22;2585;48.696;10.066;2023-02-15T08:59:15;-1.40;94.10
5134;DHT22;2585;48.696;10.066;2023-02-15T09:01:44;-1.20;94.20
5134;DHT22;2585;48.696;10.066;2023-02-15T09:04:11;-1.20;94.20
5134;DHT22;2585;48.696;10.066;2023-02-15T09:06:40;-1.10;94.20
5134;DHT22;2585;48.696;10.066;2023-02-15T09:09:08;-0.90;94.30
5134;DHT22;2585;48.696;10.066;2023-02-15T09:11:38;-0.70;94.30
5134;DHT22;2585;48.696;10.066;2023-02-15T09:14:08;-0.80;94.30
5134;DHT22;2585;48.696;10.066;2023-02-15T09:16:37;-0.70;94.30
5134;DHT22;2585;48.696;10.066;2023-02-15T09:19:05;-0.60;94.30
5134;DHT22;2585;48.696;10.066;2023-02-15T09:21:35;-0.50;94.40
5134;DHT22;2585;48.696;10.066;2023-02-15T09:24:04;-0.40;94.40
5134;DHT22;2585;48.696;10.066;2023-02-15T09:26:33;-0.40;94.40
5134;DHT22;2585;48.696;10.066;2023-02-15T09:29:01;-0.40;94.40
5134;DHT22;2585;48.696;10.066;2023-02-15T09:31:32;-0.30;94.40
5134;DHT22;2585;48.696;10.066;2023-02-15T09:34:00;-0.30;94.40
5134;DHT22;2585;48.696;10.066;2023-02-15T09:36:33;-0.20;94.40
5134;DHT22;2585;48.696;10.066;2023-02-15T09:39:19;0.10;94.50
5134;DHT22;2585;48.696;10.066;2023-02-15T09:42:16;0.10;94.50
5134;DHT22;2585;48.696;10.066;2023-02-15T09:47:59;0.00;94.40
5134;DHT22;2585;48.696;10.066;2023-02-15T09:53:31;0.00;94.40
5134;DHT22;2585;48.696;10.066;2023-02-15T09:56:33;0.10;94.50
5134;DHT22;2585;48.696;10.066;2023-02-15T10:04:37;0.20;94.50
5134;DHT22;2585;48.696;10.066;2023-02-15T10:07:38;0.40;94.50
5134;DHT22;2585;48.696;10.066;2023-02-15T10:11:08;0.50;94.50
5134;DHT22;2585;48.696;10.066;2023-02-15T10:13:44;0.70;94.60
5134;DHT22;2585;48.696;10.066;2023-02-15T10:19:04;0.80;94.60
5134;DHT22;2585;48.696;10.066;2023-02-15T10:27:21;1.00;94.60
5134;DHT22;2585;48.696;10.066;2023-02-15T10:29:55;0.90;94.60
5134;DHT22;2585;48.696;10.066;2023-02-15T10:32:28;1.00;94.60
5134;DHT22;2585;48.696;10.066;2023-02-15T10:49:36;1.60;94.80
5134;DHT22;2585;48.696;10.066;2023-02-15T11:06:08;2.80;94.90
5134;DHT22;2585;48.696;10.066;2023-02-15T11:08:50;2.90;94.90
5134;DHT22;2585;48.696;10.066;2023-02-15T11:11:25;2.90;94.90
5134;DHT22;2585;48.696;10.066;2023-02-15T11:13:58;2.60;94.80
5134;DHT22;2585;48.696;10.066;2023-02-15T11:16:36;2.40;94.70
5134;DHT22;2585;48.696;10.066;2023-02-15T11:22:04;2.70;94.80
5134;DHT22;2585;48.696;10.066;2023-02-15T11:24:38;3.40;95.00
5134;DHT22;2585;48.696;10.066;2023-02-15T11:27:16;3.80;94.80
5134;DHT22;2585;48.696;10.066;2023-02-15T11:30:05;4.00;94.80
5134;DHT22;2585;48.696;10.066;2023-02-15T11:32:39;4.40;94.70
5134;DHT22;2585;48.696;10.066;2023-02-15T11:37:53;5.10;94.50
5134;DHT22;2585;48.696;10.066;2023-02-15T11:42:51;5.30;94.20
5134;DHT22;2585;48.696;10.066;2023-02-15T11:45:30;6.10;94.20
5134;DHT22;2585;48.696;10.066;2023-02-15T11:47:59;6.70;88.00
5134;DHT22;2585;48.696;10.066;2023-02-15T11:50:31;6.20;85.60
5134;DHT22;2585;48.696;10.066;2023-02-15T11:53:04;6.80;85.90
5134;DHT22;2585;48.696;10.066;2023-02-15T11:55:32;6.40;83.40
5134;DHT22;2585;48.696;10.066;2023-02-15T12:00:43;6.60;82.00
5134;DHT22;2585;48.696;10.066;2023-02-15T12:03:21;6.30;80.60
5134;DHT22;2585;48.696;10.066;2023-02-15T12:05:56;6.30;79.50
5134;DHT22;2585;48.696;10.066;2023-02-15T12:08:34;7.30;82.90
5134;DHT22;2585;48.696;10.066;2023-02-15T12:13:34;7.60;76.10
5134;DHT22;2585;48.696;10.066;2023-02-15T12:16:06;7.70;73.70
5134;DHT22;2585;48.696;10.066;2023-02-15T12:18:39;7.70;69.60
5134;DHT22;2585;48.696;10.066;2023-02-15T12:21:09;8.10;68.60
5134;DHT22;2585;48.696;10.066;2023-02-15T12:23:46;8.00;65.30
5134;DHT22;2585;48.696;10.066;2023-02-15T12:26:15;8.50;65.10
5134;DHT22;2585;48.696;10.066;2023-02-15T12:28:50;8.30;61.40
5134;DHT22;2585;48.696;10.066;2023-02-15T12:31:30;8.30;56.10
5134;DHT22;2585;48.696;10.066;2023-02-15T12:34:01;8.90;60.00
5134;DHT22;2585;48.696;10.066;2023-02-15T12:36:50;9.00;48.50
5134;DHT22;2585;48.696;10.066;2023-02-15T12:39:24;9.50;42.60
5134;DHT22;2585;48.696;10.066;2023-02-15T12:44:26;9.00;25.10
5134;DHT22;2585;48.696;10.066;2023-02-15T12:47:05;9.10;21.40
5134;DHT22;2585;48.696;10.066;2023-02-15T12:49:36;8.40;13.90
5134;DHT22;2585;48.696;10.066;2023-02-15T12:54:47;9.00;12.90
5134;DHT22;2585;48.696;10.066;2023-02-15T12:57:27;9.30;9.30
5134;DHT22;2585;48.696;10.066;2023-02-15T12:59:56;9.40;7.00
5134;DHT22;2585;48.696;10.066;2023-02-15T13:02:49;9.70;5.20
5134;DHT22;2585;48.696;10.066;2023-02-15T13:05:25;10.20;1.00
5134;DHT22;2585;48.696;10.066;2023-02-15T13:07:57;9.90;1.00
5134;DHT22;2585;48.696;10.066;2023-02-15T13:10:28;9.90;1.00
5134;DHT22;2585;48.696;10.066;2023-02-15T13:12:57;9.50;1.00
5134;DHT22;2585;48.696;10.066;2023-02-15T13:15:36;9.70;1.00
5134;DHT22;2585;48.696;10.066;2023-02-15T13:18:05;10.00;1.00
5134;DHT22;2585;48.696;10.066;2023-02-15T13:20:37;10.30;1.00
5134;DHT22;2585;48.696;10.066;2023-02-15T13:23:28;10.00;1.00
5134;DHT22;2585;48.696;10.066;2023-02-15T13:26:02;10.00;1.00
5134;DHT22;2585;48.696;10.066;2023-02-15T13:28:39;10.30;1.00
5134;DHT22;2585;48.696;10.066;2023-02-15T13:31:28;10.30;1.00
5134;DHT22;2585;48.696;10.066;2023-02-15T13:34:25;9.90;1.00
5134;DHT22;2585;48.696;10.066;2023-02-15T13:37:13;10.00;1.00
5134;DHT22;2585;48.696;10.066;2023-02-15T13:40:03;10.30;1.00
5134;DHT22;2585;48.696;10.066;2023-02-15T13:42:53;10.00;1.00
5134;DHT22;2585;48.696;10.066;2023-02-15T13:53:48;9.40;1.00
5134;DHT22;2585;48.696;10.066;2023-02-15T13:56:44;9.70;1.00
5134;DHT22;2585;48.696;10.066;2023-02-15T13:59:33;9.80;1.00
5134;DHT22;2585;48.696;10.066;2023-02-15T14:08:00;9.70;1.00
5134;DHT22;2585;48.696;10.066;2023-02-15T14:10:51;9.70;1.00
5134;DHT22;2585;48.696;10.066;2023-02-15T14:19:05;9.30;1.00
5134;DHT22;2585;48.696;10.066;2023-02-15T14:21:54;9.30;1.00
5134;DHT22;2585;48.696;10.066;2023-02-15T14:30:32;9.50;1.00
5134;DHT22;2585;48.696;10.066;2023-02-15T14:33:38;9.60;1.00
5134;DHT22;2585;48.696;10.066;2023-02-15T14:36:13;9.70;1.00
5134;DHT22;2585;48.696;10.066;2023-02-15T14:38:51;9.70;1.00
5134;DHT22;2585;48.696;10.066;2023-02-15T14:41:28;9.50;1.00
5134;DHT22;2585;48.696;10.066;2023-02-15T14:44:09;8.90;1.00
5134;DHT22;2585;48.696;10.066;2023-02-15T14:46:52;8.70;1.00
5134;DHT22;2585;48.696;10.066;2023-02-15T14:51:59;8.30;1.00
5134;DHT22;2585;48.696;10.066;2023-02-15T14:59:45;8.10;1.00
5134;DHT22;2585;48.696;10.066;2023-02-15T15:02:17;7.90;1.00
5134;DHT22;2585;48.696;10.066;2023-02-15T15:05:09;7.70;1.00
5134;DHT22;2585;48.696;10.066;2023-02-15T15:07:47;7.80;1.00
5134;DHT22;2585;48.696;10.066;2023-02-15T15:12:56;7.70;1.00
5134;DHT22;2585;48.696;10.066;2023-02-15T15:25:58;7.30;1.00
5134;DHT22;2585;48.696;10.066;2023-02-15T15:31:18;7.20;1.00
5134;DHT22;2585;48.696;10.066;2023-02-15T15:34:18;7.20;1.00
5134;DHT22;2585;48.696;10.066;2023-02-15T15:48:01;6.60;1.00
5134;DHT22;2585;48.696;10.066;2023-02-15T15:50:33;6.30;1.00
5134;DHT22;2585;48.696;10.066;2023-02-15T15:53:02;6.30;1.00
5134;DHT22;2585;48.696;10.066;2023-02-15T15:55:31;6.20;1.00
5134;DHT22;2585;48.696;10.066;2023-02-15T15:58:03;6.10;22.50
5134;DHT22;2585;48.696;10.066;2023-02-15T16:00:49;6.00;24.20
5134;DHT22;2585;48.696;10.066;2023-02-15T16:03:21;5.90;25.90
5134;DHT22;2585;48.696;10.066;2023-02-15T16:05:49;5.60;28.00
5134;DHT22;2585;48.696;10.066;2023-02-15T16:08:32;5.50;33.70
5134;DHT22;2585;48.696;10.066;2023-02-15T16:11:09;5.40;36.70
5134;DHT22;2585;48.696;10.066;2023-02-15T16:13:42;5.20;40.60
5134;DHT22;2585;48.696;10.066;2023-02-15T16:16:12;5.20;45.30
5134;DHT22;2585;48.696;10.066;2023-02-15T16:18:39;5.10;46.80
5134;DHT22;2585;48.696;10.066;2023-02-15T16:21:16;5.10;52.00
5134;DHT22;2585;48.696;10.066;2023-02-15T16:24:09;5.00;60.40
5134;DHT22;2585;48.696;10.066;2023-02-15T16:29:32;4.70;63.00
5134;DHT22;2585;48.696;10.066;2023-02-15T16:32:03;4.70;63.30
5134;DHT22;2585;48.696;10.066;2023-02-15T16:34:31;4.60;64.80
5134;DHT22;2585;48.696;10.066;2023-02-15T16:37:19;4.50;64.10
5134;DHT22;2585;48.696;10.066;2023-02-15T16:39:48;4.40;62.50
5134;DHT22;2585;48.696;10.066;2023-02-15T16:42:16;4.20;61.40
5134;DHT22;2585;48.696;10.066;2023-02-15T16:44:47;4.10;61.40
5134;DHT22;2585;48.696;10.066;2023-02-15T16:47:27;4.00;62.10
5134;DHT22;2585;48.696;10.066;2023-02-15T16:50:00;3.80;64.10
5134;DHT22;2585;48.696;10.066;2023-02-15T16:52:29;3.70;66.10
5134;DHT22;2585;48.696;10.066;2023-02-15T16:55:02;3.70;66.90
5134;DHT22;2585;48.696;10.066;2023-02-15T16:57:34;3.50;67.00
5134;DHT22;2585;48.696;10.066;2023-02-15T17:00:07;3.40;68.40
5134;DHT22;2585;48.696;10.066;2023-02-15T17:02:35;3.20;70.10
5134;DHT22;2585;48.696;10.066;2023-02-15T17:05:22;3.10;72.80
5134;DHT22;2585;48.696;10.066;2023-02-15T17:08:16;3.10;73.30
5134;DHT22;2585;48.696;10.066;2023-02-15T17:10:59;2.90;75.60
5134;DHT22;2585;48.696;10.066;2023-02-15T17:13:28;2.70;76.40
5134;DHT22;2585;48.696;10.066;2023-02-15T17:18:31;2.60;74.90
5134;DHT22;2585;48.696;10.066;2023-02-15T17:21:01;2.60;73.00
5134;DHT22;2585;48.696;10.066;2023-02-15T17:23:43;2.50;72.80
5134;DHT22;2585;48.696;10.066;2023-02-15T17:28:49;2.30;73.80
5134;DHT22;2585;48.696;10.066;2023-02-15T17:31:19;2.20;76.90
5134;DHT22;2585;48.696;10.066;2023-02-15T17:33:47;2.10;80.40
5134;DHT22;2585;48.696;10.066;2023-02-15T17:36:21;2.10;82.10
5134;DHT22;2585;48.696;10.066;2023-02-15T17:41:27;1.90;86.80
5134;DHT22;2585;48.696;10.066;2023-02-15T17:43:54;1.80;87.40
5134;DHT22;2585;48.696;10.066;2023-02-15T17:46:21;1.70;87.60
5134;DHT22;2585;48.696;10.066;2023-02-15T17:48:50;1.70;87.80
5134;DHT22;2585;48.696;10.066;2023-02-15T17:51:18;1.60;88.30
5134;DHT22;2585;48.696;10.066;2023-02-15T17:53:46;1.50;88.20
5134;DHT22;2585;48.696;10.066;2023-02-15T17:56:33;1.40;89.00
5134;DHT22;2585;48.696;10.066;2023-02-15T17:58:59;1.40;90.20
5134;DHT22;2585;48.696;10.066;2023-02-15T18:01:26;1.20;90.30
5134;DHT22;2585;48.696;10.066;2023-02-15T18:04:13;1.10;90.70
5134;DHT22;2585;48.696;10.066;2023-02-15T18:06:59;1.10;90.80
5134;DHT22;2585;48.696;10.066;2023-02-15T18:09:44;1.00;90.30
5134;DHT22;2585;48.696;10.066;2023-02-15T18:12:32;0.90;89.10
5134;DHT22;2585;48.696;10.066;2023-02-15T18:14:59;0.80;90.20
5134;DHT22;2585;48.696;10.066;2023-02-15T18:17:43;0.80;90.40
5134;DHT22;2585;48.696;10.066;2023-02-15T18:20:18;0.70;90.00
5134;DHT22;2585;48.696;10.066;2023-02-15T18:22:46;0.60;90.10
5134;DHT22;2585;48.696;10.066;2023-02-15T18:25:15;0.60;90.40
5134;DHT22;2585;48.696;10.066;2023-02-15T18:27:42;0.50;90.70
5134;DHT22;2585;48.696;10.066;2023-02-15T18:30:14;0.40;91.10
5134;DHT22;2585;48.696;10.066;2023-02-15T18:32:42;0.40;91.40
5134;DHT22;2585;48.696;10.066;2023-02-15T18:35:17;0.40;91.50
5134;DHT22;2585;48.696;10.066;2023-02-15T18:37:45;0.40;91.40
5134;DHT22;2585;48.696;10.066;2023-02-15T18:40:25;0.30;91.40
5134;DHT22;2585;48.696;10.066;2023-02-15T18:42:52;0.20;91.30
5134;DHT22;2585;48.696;10.066;2023-02-15T18:45:27;0.10;91.50
5134;DHT22;2585;48.696;10.066;2023-02-15T18:47:58;0.10;92.00
5134;DHT22;2585;48.696;10.066;2023-02-15T18:50:29;0.10;92.10
5134;DHT22;2585;48.696;10.066;2023-02-15T18:52:56;0.00;91.90
5134;DHT22;2585;48.696;10.066;2023-02-15T18:55:27;0.00;92.20
5134;DHT22;2585;48.696;10.066;2023-02-15T18:57:55;-0.10;92.50
5134;DHT22;2585;48.696;10.066;2023-02-15T19:00:27;0.00;92.70
5134;DHT22;2585;48.696;10.066;2023-02-15T19:02:55;-0.10;92.60
5134;DHT22;2585;48.696;10.066;2023-02-15T19:05:23;-0.10;92.70
5134;DHT22;2585;48.696;10.066;2023-02-15T19:07:53;-0.10;92.70
5134;DHT22;2585;48.696;10.066;2023-02-15T19:10:23;-0.20;92.70
5134;DHT22;2585;48.696;10.066;2023-02-15T19:12:51;-0.20;92.90